LiveATC.Net - Listen to live air traffic control over the Internet!


ICAO: KSUZ  IATA: SUZ   Airport: Saline County Regional Airport
City: Benton   State/Province: Arkansas
Country: United States   Continent: North America
KSUZ METAR Weather: KSUZ 191955Z AUTO 23009G15KT 10SM CLR 33/20 A2973 RMK A01
KSUZ Flight Activity (FlightAware)
KSUZ Airport Info   (iFlightPlanner)
KSUZ VFR Sectional Chart   (iFlightPlanner) 
KSUZ IFR Low Chart   (iFlightPlanner) 

KSUZ CTAF (Air Race Classic)
Feed Status: UP   Listeners: 0
Listen in your browser - HTML5 player (in browser, HTML5)
Click here to listen with your own player (launches your MP3 player)
KSUZ CTAF (Air Race Classic) Audio Archives
FacilityFrequency
Saline County CTAF122.800

NOTICE

Unauthorized use prohibited. See LiveATC.net Terms of Service


Find LiveATC Audio Streams


Airport/ARTCC Code

Frequency Search
(e.g., 124.400, 128.75)
Site-wide search
 


Browse LiveATC Feeds
Top 50 LiveATC Feeds
LiveATC Feed Map
Bad Weather Areas

LiveATC FAQ
Offer LiveATC feed
Contact LiveATC.net
Press Inquiries

LiveATC on iPhone
LiveATC on Android

Windows Phone
Windows 8/10

LiveATC Mobile
(Mobile browser)

ATC Audio Archives
Interesting Recordings

LiveATC Forums


Home Page
About LiveATC.net
Make a Donation
Terms of Use
Privacy Policy

Canadian Air Freqs

AIRMETs/SIGMETs

FAA Airport Status
Nat'l Airspace Status
Arrival Demand Charts


Server Software By:
Icecast.org
Liquidsoap